Aydin, Turkey
Current Conditions -  °F | °C
As of 5:20 AM on Thursday 23 Oct 2014 (Local Time) from LTFE Reporting Station
Broken Clouds Broken Clouds  
Wind Chill: 68°   Ceiling: 10000
Heat Index: 68°   Visibility: 6mi
Dew Point: 57°   Wind: 8mph
Humidity: 68%   Direction: 90°E
Pressure: 29.77"   Gusts: NA
Location:  37.86°N, 27.84°E
Report Text: LTFE 230220Z 09007KT 9999 FEW020CB SCT030 BKN100 20/14 Q1008 TEMPO FM0250 4000 TSRA
Loading
Personal Weather Stations






























Interactive Weather Map New forecast layout! Learn more

10-Day Weather Forecast

Advertisements
Track Severe Weather on mobile